createdAt,value
2022-12-22T00:01:53.435Z,99279.25
2022-12-22T00:04:39.098Z,99291.94
2022-12-22T00:07:24.806Z,99286.34
2022-12-22T00:10:10.756Z,99283.72
2022-12-22T00:12:57.440Z,99290.94
2022-12-22T00:15:45.462Z,99286.19
2022-12-22T00:18:34.499Z,99295.88
2022-12-22T00:21:20.760Z,99284.63
2022-12-22T00:24:06.667Z,99275.00
2022-12-22T00:26:54.198Z,99282.81
2022-12-22T00:29:40.646Z,99284.13
2022-12-22T00:32:32.520Z,99261.16
2022-12-22T00:35:19.221Z,99264.09
2022-12-22T00:38:05.135Z,99258.03
2022-12-22T00:40:51.075Z,99247.16
2022-12-22T00:43:36.796Z,99242.56
2022-12-22T00:46:23.075Z,99240.88
2022-12-22T00:53:21.513Z,99249.03
2022-12-22T00:56:07.377Z,99246.69
2022-12-22T00:58:54.366Z,99247.06
2022-12-22T01:01:40.417Z,99258.78
2022-12-22T01:04:29.020Z,99246.25
2022-12-22T01:07:15.331Z,99238.88
2022-12-22T01:10:09.302Z,99238.09
2022-12-22T01:12:58.040Z,99250.63
2022-12-22T01:15:45.403Z,99242.44
2022-12-22T01:18:31.919Z,99244.97
2022-12-22T01:21:17.518Z,99235.13
2022-12-22T01:24:04.301Z,99231.34
2022-12-22T01:26:51.943Z,99239.25
2022-12-22T01:29:37.753Z,99242.22
2022-12-22T01:32:24.179Z,99236.66
2022-12-22T01:35:09.982Z,99235.69
2022-12-22T01:37:55.871Z,99230.69
2022-12-22T01:40:44.124Z,99232.59
2022-12-22T01:43:40.968Z,99220.41
2022-12-22T01:46:44.901Z,99220.78
2022-12-22T01:49:37.026Z,99217.47
2022-12-22T01:52:25.276Z,99217.38
2022-12-22T01:55:13.621Z,99219.41
2022-12-22T01:57:59.679Z,99226.63
2022-12-22T02:00:47.250Z,99218.22
2022-12-22T02:03:35.050Z,99194.31
2022-12-22T02:06:40.802Z,99182.25
2022-12-22T02:09:50.055Z,99186.25
2022-12-22T02:12:47.220Z,99198.00
2022-12-22T02:15:42.410Z,99202.94
2022-12-22T02:18:39.974Z,99193.47
2022-12-22T02:21:32.295Z,99198.69
2022-12-22T02:24:40.142Z,99189.69
2022-12-22T02:27:28.952Z,99189.22
2022-12-22T02:30:21.141Z,99194.19
2022-12-22T02:33:10.082Z,99197.88
2022-12-22T02:36:04.566Z,99184.00
2022-12-22T02:39:03.634Z,99180.00
2022-12-22T02:42:01.832Z,99199.66
2022-12-22T02:45:01.217Z,99196.69
2022-12-22T02:47:54.328Z,99204.38
2022-12-22T02:50:46.129Z,99205.47
2022-12-22T02:53:34.448Z,99207.69
2022-12-22T02:56:24.582Z,99204.13
2022-12-22T02:59:11.086Z,99202.84
2022-12-22T03:02:00.724Z,99201.53
2022-12-22T03:04:46.443Z,99194.19
2022-12-22T03:07:32.551Z,99194.19
2022-12-22T03:10:18.462Z,99194.44
2022-12-22T03:13:04.407Z,99191.94
2022-12-22T03:15:50.186Z,99190.06
2022-12-22T03:18:37.339Z,99181.03
2022-12-22T03:21:23.708Z,99176.91
2022-12-22T03:24:09.297Z,99177.03
2022-12-22T03:26:39.082Z,99178.44
2022-12-22T03:29:07.731Z,99174.78
2022-12-22T03:31:36.181Z,99183.66
2022-12-22T03:34:06.016Z,99171.81
2022-12-22T03:36:34.475Z,99168.75
2022-12-22T03:39:02.924Z,99169.19
2022-12-22T03:41:48.576Z,99158.78
2022-12-22T03:44:34.481Z,99160.31
2022-12-22T03:47:02.891Z,99152.59
2022-12-22T03:49:33.007Z,99159.94
2022-12-22T03:52:01.422Z,99154.72
2022-12-22T03:54:29.803Z,99144.31
2022-12-22T03:56:59.203Z,99142.06
2022-12-22T03:59:27.647Z,99155.91
2022-12-22T04:01:56.706Z,99156.13
2022-12-22T04:04:27.705Z,99154.25
2022-12-22T04:06:57.566Z,99144.19
2022-12-22T04:09:27.368Z,99152.97
2022-12-22T04:12:28.051Z,99142.88
2022-12-22T04:14:56.424Z,99153.16
2022-12-22T04:17:24.813Z,99155.09
2022-12-22T04:19:53.203Z,99158.03
2022-12-22T04:22:22.961Z,99160.28
2022-12-22T04:24:51.372Z,99154.38
2022-12-22T04:27:19.771Z,99152.59
2022-12-22T04:29:48.187Z,99167.63
2022-12-22T04:32:16.699Z,99153.78
2022-12-22T04:34:45.135Z,99155.78
2022-12-22T04:37:17.450Z,99143.03
2022-12-22T04:39:47.600Z,99139.00
2022-12-22T04:42:16.156Z,99151.31
2022-12-22T04:44:44.557Z,99143.72
2022-12-22T04:47:12.962Z,99137.25
2022-12-22T04:49:41.388Z,99138.06
2022-12-22T04:52:09.958Z,99144.56
2022-12-22T04:54:38.725Z,99145.63
2022-12-22T04:57:08.587Z,99146.47
2022-12-22T04:59:36.985Z,99137.44
2022-12-22T05:02:05.699Z,99146.47
2022-12-22T05:04:34.185Z,99139.13
2022-12-22T05:07:02.673Z,99139.72
2022-12-22T05:09:31.053Z,99144.09
2022-12-22T05:11:59.486Z,99143.28
2022-12-22T05:14:29.301Z,99140.81
2022-12-22T05:16:57.770Z,99142.91
2022-12-22T05:19:30.754Z,99143.72
2022-12-22T05:21:59.567Z,99149.19
2022-12-22T05:24:27.934Z,99138.06
2022-12-22T05:26:56.301Z,99144.09
2022-12-22T05:29:24.921Z,99133.69
2022-12-22T05:31:54.661Z,99139.59
2022-12-22T05:34:23.148Z,99141.97
2022-12-22T05:36:51.561Z,99144.91
2022-12-22T05:39:19.992Z,99151.44
2022-12-22T05:41:48.454Z,99152.47
2022-12-22T05:44:16.944Z,99143.13
2022-12-22T05:46:45.479Z,99128.34
2022-12-22T05:49:15.360Z,99144.69
2022-12-22T05:51:43.769Z,99140.06
2022-12-22T05:54:12.532Z,99144.22
2022-12-22T05:56:40.917Z,99148.59
2022-12-22T05:59:09.303Z,99153.56
2022-12-22T06:01:37.744Z,99162.66
2022-12-22T06:04:06.655Z,99149.44
2022-12-22T06:06:36.559Z,99146.25
2022-12-22T06:09:05.115Z,99142.69
2022-12-22T06:11:33.534Z,99146.25
2022-12-22T06:14:01.929Z,99147.88
2022-12-22T06:16:30.412Z,99147.63
2022-12-22T06:18:58.845Z,99155.22
2022-12-22T06:21:27.295Z,99149.78
2022-12-22T06:23:57.023Z,99146.25
2022-12-22T06:26:25.391Z,99147.88
2022-12-22T06:28:53.781Z,99147.63
2022-12-22T06:31:22.244Z,99145.75
2022-12-22T06:33:50.728Z,99154.50
2022-12-22T06:36:19.142Z,99152.38
2022-12-22T06:38:47.549Z,99139.84
2022-12-22T06:41:37.888Z,99140.09
2022-12-22T06:44:05.744Z,99138.88
2022-12-22T06:46:34.414Z,99153.59
2022-12-22T06:49:02.925Z,99153.34
2022-12-22T06:51:31.341Z,99143.28
2022-12-22T06:53:59.735Z,99131.78
2022-12-22T06:56:29.589Z,99126.22
2022-12-22T06:58:58.016Z,99114.38
2022-12-22T07:01:26.532Z,99125.97
2022-12-22T07:03:56.363Z,99121.47
2022-12-22T07:06:24.793Z,99122.78
2022-12-22T07:08:53.269Z,99124.31
2022-12-22T07:11:21.714Z,99130.22
2022-12-22T07:13:51.456Z,99130.69
2022-12-22T07:16:19.939Z,99125.22
2022-12-22T07:18:48.386Z,99122.28
2022-12-22T07:21:17.147Z,99125.59
2022-12-22T07:23:45.631Z,99128.69
2022-12-22T07:26:14.652Z,99133.91
2022-12-22T07:28:43.662Z,99129.88
2022-12-22T07:31:14.309Z,99130.47
2022-12-22T07:33:42.741Z,99129.19
2022-12-22T07:36:15.373Z,99135.44
2022-12-22T07:38:46.570Z,99134.63
2022-12-22T07:41:34.289Z,99129.97
2022-12-22T07:44:03.485Z,99123.50
2022-12-22T07:46:37.095Z,99121.94
2022-12-22T07:49:24.975Z,99118.75
2022-12-22T07:51:56.671Z,99131.28
2022-12-22T07:54:25.628Z,99134.63
2022-12-22T07:56:54.547Z,99132.84
2022-12-22T07:59:23.082Z,99130.50
2022-12-22T08:01:53.092Z,99138.41
2022-12-22T08:04:22.538Z,99131.91
2022-12-22T08:06:51.107Z,99149.66
2022-12-22T08:09:21.772Z,99150.03
2022-12-22T08:11:50.912Z,99141.97
2022-12-22T08:14:19.432Z,99139.00
2022-12-22T08:16:47.963Z,99133.56
2022-12-22T08:19:17.883Z,99137.94
2022-12-22T08:21:52.507Z,99141.72
2022-12-22T08:24:22.787Z,99134.63
2022-12-22T08:26:55.930Z,99132.25
2022-12-22T08:29:29.055Z,99137.00
2022-12-22T08:31:57.713Z,99137.94
2022-12-22T08:34:27.878Z,99138.53
2022-12-22T08:37:02.010Z,99151.19
2022-12-22T08:39:36.305Z,99152.38
2022-12-22T08:42:06.854Z,99143.97
2022-12-22T08:44:35.380Z,99155.00
2022-12-22T08:47:03.941Z,99148.81
2022-12-22T08:49:34.004Z,99164.69
2022-12-22T08:52:02.467Z,99147.59
2022-12-22T08:54:30.890Z,99144.72
2022-12-22T08:56:59.781Z,99132.06
2022-12-22T08:59:28.306Z,99133.81
2022-12-22T09:01:56.946Z,99135.81
2022-12-22T09:04:25.630Z,99147.91
2022-12-22T09:06:55.485Z,99149.81
2022-12-22T09:09:24.127Z,99155.84
2022-12-22T09:11:52.797Z,99148.50
2022-12-22T09:14:21.247Z,99144.34
2022-12-22T09:16:50.553Z,99138.06
2022-12-22T09:19:19.618Z,99143.19
2022-12-22T09:21:48.121Z,99132.59
2022-12-22T09:24:18.405Z,99133.44
2022-12-22T09:26:46.973Z,99146.81
2022-12-22T09:29:17.065Z,99140.78
2022-12-22T09:31:45.743Z,99126.31
2022-12-22T09:34:18.095Z,99129.28
2022-12-22T09:36:47.931Z,99105.81
2022-12-22T09:39:22.190Z,99093.50
2022-12-22T09:41:55.905Z,99093.50
2022-12-22T09:44:28.590Z,99082.59
2022-12-22T09:46:59.487Z,99082.09
2022-12-22T09:49:28.738Z,99079.72
2022-12-22T09:52:00.853Z,99084.94
2022-12-22T09:54:32.101Z,99090.38
2022-12-22T09:57:00.964Z,99071.56
2022-12-22T09:59:31.336Z,99060.88
2022-12-22T10:02:20.892Z,99046.66
2022-12-22T10:05:14.033Z,99053.09
2022-12-22T10:07:43.794Z,99040.19
2022-12-22T10:10:25.496Z,99047.44
2022-12-22T10:12:55.601Z,99049.31
2022-12-22T10:15:24.988Z,99036.19
2022-12-22T10:18:10.935Z,99034.31
2022-12-22T10:20:40.669Z,99043.06
2022-12-22T10:23:19.385Z,99041.50
2022-12-22T10:29:01.142Z,99040.78
2022-12-22T10:31:32.178Z,99041.34
2022-12-22T10:34:16.435Z,99030.19
2022-12-22T10:36:50.074Z,99031.97
2022-12-22T10:39:24.825Z,99054.69
2022-12-22T10:41:58.191Z,99045.19
2022-12-22T10:44:29.907Z,99039.50
2022-12-22T10:47:01.315Z,99047.44
2022-12-22T10:52:15.892Z,99049.69
2022-12-22T10:54:46.049Z,99008.59
2022-12-22T10:57:31.558Z,99022.81
2022-12-22T11:00:02.389Z,99023.41
2022-12-22T11:02:37.901Z,99012.50
2022-12-22T11:05:09.767Z,98996.47
2022-12-22T11:07:40.602Z,98993.22
2022-12-22T11:10:27.561Z,98984.28
2022-12-22T11:13:44.741Z,98981.66
2022-12-22T11:16:25.733Z,98981.41
2022-12-22T11:19:10.957Z,98987.50
2022-12-22T11:21:47.513Z,98971.94
2022-12-22T11:24:32.554Z,98963.38
2022-12-22T11:27:21.744Z,98946.09
2022-12-22T11:30:09.417Z,98946.00
2022-12-22T11:33:08.109Z,98941.56
2022-12-22T11:35:58.639Z,98938.00
2022-12-22T11:38:47.539Z,98931.97
2022-12-22T11:41:33.409Z,98933.38
2022-12-22T11:44:30.397Z,98930.66
2022-12-22T11:47:09.984Z,98929.31
2022-12-22T11:50:00.292Z,98927.75
2022-12-22T11:53:02.881Z,98925.59
2022-12-22T11:55:35.980Z,98933.28
2022-12-22T11:58:32.695Z,98911.47
2022-12-22T12:01:25.712Z,98914.75
2022-12-22T12:04:33.826Z,98909.66
2022-12-22T12:07:26.224Z,98909.50
2022-12-22T12:10:08.220Z,98908.47
2022-12-22T12:12:49.576Z,98904.06
2022-12-22T12:15:32.362Z,98906.22
2022-12-22T12:18:39.976Z,98901.28
2022-12-22T12:21:30.039Z,98884.91
2022-12-22T12:24:36.981Z,98887.66
2022-12-22T12:27:13.192Z,98872.06
2022-12-22T12:30:36.256Z,98881.34
2022-12-22T12:32:57.091Z,98872.91
2022-12-22T12:35:47.813Z,98884.38
2022-12-22T12:39:06.371Z,98861.78
2022-12-22T12:41:28.814Z,98878.50
2022-12-22T12:43:59.085Z,98859.47
2022-12-22T12:46:56.522Z,98862.19
2022-12-22T12:50:02.348Z,98852.66
2022-12-22T12:53:18.552Z,98858.94
2022-12-22T12:56:07.998Z,98861.16
2022-12-22T12:58:54.398Z,98856.00
2022-12-22T13:02:01.210Z,98842.97
2022-12-22T13:05:12.873Z,98842.69
2022-12-22T13:08:21.788Z,98836.47
2022-12-22T13:14:58.259Z,98831.06
2022-12-22T13:17:49.824Z,98823.72
2022-12-22T13:20:25.992Z,98824.63
2022-12-22T13:22:56.902Z,98822.78
2022-12-22T13:25:37.090Z,98809.69
2022-12-22T13:28:06.730Z,98809.72
2022-12-22T13:30:35.431Z,98813.28
2022-12-22T13:33:04.340Z,98821.25
2022-12-22T13:35:46.685Z,98822.88
2022-12-22T13:38:36.138Z,98813.34
2022-12-22T13:41:22.982Z,98816.13
2022-12-22T13:43:58.439Z,98817.81
2022-12-22T13:46:28.043Z,98820.88
2022-12-22T13:49:00.532Z,98837.00
2022-12-22T13:51:33.180Z,98823.34
2022-12-22T13:54:09.309Z,98827.13
2022-12-22T13:56:45.612Z,98830.13
2022-12-22T13:59:28.707Z,98823.56
2022-12-22T14:02:01.299Z,98824.06
2022-12-22T14:04:31.143Z,98831.41
2022-12-22T14:07:10.717Z,98837.09
2022-12-22T14:09:39.169Z,98823.09
2022-12-22T14:12:16.153Z,98827.09
2022-12-22T14:14:47.201Z,98828.97
2022-12-22T14:17:26.555Z,98831.31
2022-12-22T14:19:58.225Z,98832.63
2022-12-22T14:22:31.406Z,98822.25
2022-12-22T14:25:05.546Z,98832.03
2022-12-22T14:27:40.145Z,98833.38
2022-12-22T14:30:19.324Z,98840.16
2022-12-22T14:32:54.899Z,98835.75
2022-12-22T14:35:31.235Z,98840.38
2022-12-22T14:38:24.707Z,98830.56
2022-12-22T14:40:57.295Z,98825.94
2022-12-22T14:43:32.487Z,98829.47
2022-12-22T14:46:08.559Z,98829.22
2022-12-22T14:48:41.101Z,98820.50
2022-12-22T14:51:09.622Z,98809.91
2022-12-22T14:53:48.457Z,98815.94
2022-12-22T14:56:18.722Z,98804.66
2022-12-22T14:58:50.471Z,98789.69
2022-12-22T15:01:25.060Z,98778.53
2022-12-22T15:04:02.867Z,98773.97
2022-12-22T15:06:44.697Z,98791.22
2022-12-22T15:12:19.418Z,98803.59
2022-12-22T15:14:50.029Z,98812.78
2022-12-22T15:17:25.528Z,98799.97
2022-12-22T15:19:58.811Z,98816.09
2022-12-22T15:22:27.333Z,98822.72
2022-12-22T15:24:55.722Z,98824.34
2022-12-22T15:27:24.122Z,98834.44
2022-12-22T15:29:53.956Z,98860.22
2022-12-22T15:32:22.414Z,98866.25
2022-12-22T15:34:50.877Z,98882.38
2022-12-22T15:37:19.314Z,98881.53
2022-12-22T15:39:47.887Z,98886.19
2022-12-22T15:42:16.412Z,98870.31
2022-12-22T15:44:44.826Z,98892.97
2022-12-22T15:47:14.931Z,98884.75
2022-12-22T15:49:43.468Z,98879.53
2022-12-22T15:52:14.853Z,98882.81
2022-12-22T15:54:43.462Z,98887.13
2022-12-22T15:57:14.606Z,98865.50
2022-12-22T15:59:43.076Z,98858.66
2022-12-22T16:02:15.248Z,98850.72
2022-12-22T16:04:43.899Z,98844.69
2022-12-22T16:07:13.432Z,98832.38
2022-12-22T16:09:43.832Z,98830.13
2022-12-22T16:12:15.237Z,98828.50
2022-12-22T16:14:49.954Z,98834.06
2022-12-22T16:17:26.841Z,98838.13
2022-12-22T16:19:55.466Z,98831.59
2022-12-22T16:22:32.518Z,98823.66
2022-12-22T16:25:03.547Z,98825.00
2022-12-22T16:27:32.508Z,98825.22
2022-12-22T16:30:00.985Z,98826.56
2022-12-22T16:32:33.505Z,98821.38
2022-12-22T16:35:15.236Z,98827.91
2022-12-22T16:37:43.895Z,98827.91
2022-12-22T16:40:13.716Z,98838.03
2022-12-22T16:45:36.200Z,98860.72
2022-12-22T16:48:16.301Z,98858.81
2022-12-22T16:50:48.108Z,98852.28
2022-12-22T16:53:16.996Z,98848.72
2022-12-22T16:55:45.443Z,98851.19
2022-12-22T16:58:14.431Z,98849.53
2022-12-22T17:00:46.639Z,98839.94
2022-12-22T17:03:22.392Z,98853.06
2022-12-22T17:05:54.301Z,98847.03
2022-12-22T17:08:27.050Z,98831.97
2022-12-22T17:10:58.127Z,98843.97
2022-12-22T17:13:27.681Z,98839.84
2022-12-22T17:15:56.217Z,98837.38
2022-12-22T17:18:27.264Z,98829.44
2022-12-22T17:20:58.241Z,98821.47
2022-12-22T17:23:34.204Z,98813.41
2022-12-22T17:26:07.025Z,98813.66
2022-12-22T17:28:36.697Z,98801.91
2022-12-22T17:31:05.323Z,98797.50
2022-12-22T17:33:35.389Z,98803.25
2022-12-22T17:36:04.336Z,98801.00
2022-12-22T17:38:32.766Z,98808.38
2022-12-22T17:41:03.256Z,98810.81
2022-12-22T17:43:31.762Z,98819.53
2022-12-22T17:46:00.445Z,98814.31
2022-12-22T17:48:29.017Z,98817.88
2022-12-22T17:50:58.829Z,98812.41
2022-12-22T17:53:27.335Z,98817.34
2022-12-22T17:56:11.152Z,98826.09
2022-12-22T17:58:39.577Z,98823.44
2022-12-22T18:01:13.391Z,98818.03
2022-12-22T18:03:42.090Z,98812.34
2022-12-22T18:06:17.644Z,98790.81
2022-12-22T18:08:47.413Z,98794.09
2022-12-22T18:11:16.299Z,98805.31
2022-12-22T18:13:45.055Z,98806.47
2022-12-22T18:16:20.441Z,98810.34
2022-12-22T18:18:49.943Z,98808.22
2022-12-22T18:21:23.950Z,98804.16
2022-12-22T18:23:53.579Z,98811.88
2022-12-22T18:26:25.780Z,98806.47
2022-12-22T18:28:55.924Z,98810.59
2022-12-22T18:31:25.955Z,98806.56
2022-12-22T18:33:55.272Z,98798.13
2022-12-22T18:36:32.644Z,98794.59
2022-12-22T18:39:03.153Z,98782.06
2022-12-22T18:41:35.956Z,98765.88
2022-12-22T18:44:04.658Z,98759.06
2022-12-22T18:46:33.252Z,98772.75
2022-12-22T18:49:05.861Z,98779.59
2022-12-22T18:51:36.312Z,98770.88
2022-12-22T18:54:05.043Z,98755.59
2022-12-22T18:56:33.708Z,98757.25
2022-12-22T18:59:02.387Z,98760.56
2022-12-22T19:01:31.048Z,98754.06
2022-12-22T19:04:00.165Z,98745.28
2022-12-22T19:06:30.560Z,98740.94
2022-12-22T19:09:00.352Z,98731.91
2022-12-22T19:11:32.114Z,98734.94
2022-12-22T19:14:01.487Z,98727.28
2022-12-22T19:16:30.237Z,98726.50
2022-12-22T19:19:01.624Z,98727.63
2022-12-22T19:21:30.117Z,98733.13
2022-12-22T19:24:01.287Z,98723.81
2022-12-22T19:26:30.667Z,98724.66
2022-12-22T19:29:02.587Z,98723.31
2022-12-22T19:31:34.437Z,98735.66
2022-12-22T19:34:08.034Z,98737.00
2022-12-22T19:36:36.923Z,98732.91
2022-12-22T19:39:07.364Z,98724.34
2022-12-22T19:41:43.146Z,98720.22
2022-12-22T19:44:22.293Z,98727.56
2022-12-22T19:46:51.710Z,98728.34
2022-12-22T19:49:23.036Z,98718.34
2022-12-22T19:51:52.460Z,98719.38
2022-12-22T19:54:22.296Z,98708.59
2022-12-22T19:56:56.225Z,98711.56
2022-12-22T19:59:38.552Z,98710.94
2022-12-22T20:02:27.177Z,98698.75
2022-12-22T20:04:56.968Z,98707.47
2022-12-22T20:07:27.945Z,98698.03
2022-12-22T20:09:58.280Z,98700.75
2022-12-22T20:12:31.827Z,98699.06
2022-12-22T20:15:01.722Z,98699.59
2022-12-22T20:17:31.273Z,98712.78
2022-12-22T20:20:00.205Z,98702.59
2022-12-22T20:22:30.823Z,98718.25
2022-12-22T20:25:01.851Z,98695.66
2022-12-22T20:27:35.223Z,98712.09
2022-12-22T20:30:04.009Z,98705.72
2022-12-22T20:32:32.883Z,98704.84
2022-12-22T20:35:02.088Z,98710.09
2022-12-22T20:37:31.502Z,98718.88
2022-12-22T20:40:01.714Z,98711.13
2022-12-22T20:42:31.378Z,98727.88
2022-12-22T20:45:03.287Z,98733.13
2022-12-22T20:47:34.319Z,98727.31
2022-12-22T20:50:03.831Z,98725.69
2022-12-22T20:52:33.606Z,98723.47
2022-12-22T20:55:03.956Z,98727.56
2022-12-22T20:57:33.302Z,98727.50
2022-12-22T21:00:02.265Z,98729.69
2022-12-22T21:02:31.277Z,98725.22
2022-12-22T21:05:00.067Z,98721.38
2022-12-22T21:07:28.646Z,98719.13
2022-12-22T21:09:57.097Z,98720.28
2022-12-22T21:12:27.037Z,98716.69
2022-12-22T21:14:55.519Z,98713.94
2022-12-22T21:17:23.911Z,98712.53
2022-12-22T21:19:52.700Z,98722.94
2022-12-22T21:22:21.208Z,98715.19
2022-12-22T21:24:49.673Z,98721.53
2022-12-22T21:27:21.566Z,98716.28
2022-12-22T21:29:51.435Z,98712.13
2022-12-22T21:32:19.819Z,98717.84
2022-12-22T21:34:48.285Z,98719.72
2022-12-22T21:37:19.869Z,98720.25
2022-12-22T21:39:48.384Z,98727.09
2022-12-22T21:42:17.514Z,98724.91
2022-12-22T21:44:46.379Z,98726.84
2022-12-22T21:47:20.767Z,98728.50
2022-12-22T21:49:53.539Z,98731.25
2022-12-22T21:52:23.104Z,98726.84
2022-12-22T21:54:53.896Z,98729.59
2022-12-22T21:57:27.970Z,98721.31
2022-12-22T21:59:57.723Z,98715.81
2022-12-22T22:02:28.237Z,98719.97
2022-12-22T22:04:56.746Z,98723.84
2022-12-22T22:07:25.309Z,98718.09
2022-12-22T22:09:54.039Z,98729.19
2022-12-22T22:12:36.170Z,98731.97
2022-12-22T22:15:05.363Z,98728.75
2022-12-22T22:17:35.174Z,98731.28
2022-12-22T22:20:03.750Z,98733.78
2022-12-22T22:22:32.211Z,98730.50
2022-12-22T22:25:00.596Z,98731.06
2022-12-22T22:27:29.077Z,98725.88
2022-12-22T22:29:57.503Z,98726.69
2022-12-22T22:32:25.979Z,98722.28
2022-12-22T22:34:55.869Z,98726.69
2022-12-22T22:37:24.394Z,98723.34
2022-12-22T22:39:53.411Z,98720.31
2022-12-22T22:42:21.802Z,98724.13
2022-12-22T22:44:50.229Z,98718.84
2022-12-22T22:47:18.773Z,98724.28
2022-12-22T22:49:47.202Z,98713.22
2022-12-22T22:52:17.012Z,98707.66
2022-12-22T22:54:45.407Z,98704.84
2022-12-22T22:57:13.853Z,98696.81
2022-12-22T22:59:42.245Z,98701.78
2022-12-22T23:02:11.377Z,98699.84
2022-12-22T23:04:39.890Z,98699.28
2022-12-22T23:07:08.312Z,98706.19
2022-12-22T23:09:38.199Z,98704.59
2022-12-22T23:12:07.666Z,98703.03
2022-12-22T23:14:36.322Z,98694.00
2022-12-22T23:17:04.743Z,98701.78
2022-12-22T23:19:33.185Z,98701.03
2022-12-22T23:22:01.696Z,98698.34
2022-12-22T23:24:31.312Z,98691.25
2022-12-22T23:27:01.905Z,98683.03
2022-12-22T23:29:30.566Z,98681.16
2022-12-22T23:31:59.050Z,98682.03
2022-12-22T23:34:27.640Z,98682.59
2022-12-22T23:36:56.092Z,98684.31
2022-12-22T23:39:24.790Z,98679.38
2022-12-22T23:41:53.195Z,98673.34
2022-12-22T23:44:23.035Z,98682.16
2022-12-22T23:46:51.488Z,98679.72
2022-12-22T23:49:19.951Z,98680.03
2022-12-22T23:51:48.364Z,98688.28
2022-12-22T23:54:16.764Z,98694.56
2022-12-22T23:56:45.127Z,98679.72
2022-12-22T23:59:13.574Z,98681.06
